createdAt,value
2019-05-22T00:00:32.443Z,23.50
2019-05-22T00:03:03.364Z,23.73
2019-05-22T00:05:33.903Z,25.40
2019-05-22T00:08:12.669Z,25.63
2019-05-22T00:10:43.470Z,25.47
2019-05-22T00:13:22.067Z,25.10
2019-05-22T00:15:53.917Z,26.07
2019-05-22T00:18:30.345Z,25.30
2019-05-22T00:21:00.590Z,25.13
2019-05-22T00:23:37.611Z,25.23
2019-05-22T00:26:07.626Z,26.67
2019-05-22T00:28:38.445Z,27.13
2019-05-22T00:31:15.956Z,26.30
2019-05-22T00:33:45.550Z,24.93
2019-05-22T00:36:23.035Z,26.80
2019-05-22T00:39:00.496Z,26.53
2019-05-22T00:41:45.343Z,26.60
2019-05-22T00:44:16.270Z,28.80
2019-05-22T00:46:45.928Z,29.10
2019-05-22T00:49:24.158Z,26.73
2019-05-22T00:52:07.047Z,27.27
2019-05-22T00:55:02.143Z,27.40
2019-05-22T00:57:51.128Z,27.97
2019-05-22T01:00:35.410Z,27.80
2019-05-22T01:03:06.733Z,30.40
2019-05-22T01:05:44.095Z,31.17
2019-05-22T01:08:16.003Z,32.93
2019-05-22T01:10:56.648Z,33.60
2019-05-22T01:13:30.644Z,33.90
2019-05-22T01:16:08.140Z,34.90
2019-05-22T01:18:38.900Z,38.33
2019-05-22T01:21:16.429Z,39.60
2019-05-22T01:23:47.346Z,37.53
2019-05-22T01:26:26.032Z,37.00
2019-05-22T01:28:55.854Z,36.60
2019-05-22T01:31:44.004Z,36.03
2019-05-22T01:34:13.421Z,38.10
2019-05-22T01:36:53.812Z,38.90
2019-05-22T01:39:49.381Z,37.70
2019-05-22T01:42:38.533Z,38.53
2019-05-22T01:45:11.452Z,37.30
2019-05-22T01:47:55.707Z,39.77
2019-05-22T01:50:41.016Z,41.57
2019-05-22T01:53:18.109Z,39.60
2019-05-22T01:55:48.119Z,37.80
2019-05-22T01:58:20.105Z,39.10
2019-05-22T02:00:59.480Z,38.10
2019-05-22T02:03:30.352Z,37.70
2019-05-22T02:06:08.354Z,39.07
2019-05-22T02:08:43.971Z,38.60
2019-05-22T02:11:22.861Z,35.57
2019-05-22T02:13:58.144Z,35.40
2019-05-22T02:16:38.231Z,32.77
2019-05-22T02:19:08.213Z,30.37
2019-05-22T02:21:37.834Z,28.97
2019-05-22T02:24:15.646Z,26.57
2019-05-22T02:26:45.987Z,27.43
2019-05-22T02:29:23.224Z,24.63
2019-05-22T02:31:55.496Z,26.47
2019-05-22T02:34:31.365Z,27.03
2019-05-22T02:37:00.586Z,24.63
2019-05-22T02:39:45.809Z,26.13
2019-05-22T02:42:26.887Z,25.13
2019-05-22T02:45:04.574Z,23.47
2019-05-22T02:47:34.911Z,22.30
2019-05-22T02:50:11.797Z,22.47
2019-05-22T02:52:41.497Z,22.90
2019-05-22T02:55:12.209Z,21.27
2019-05-22T02:57:48.525Z,20.30
2019-05-22T03:00:19.548Z,21.90
2019-05-22T03:03:01.439Z,22.27
2019-05-22T03:05:30.952Z,23.03
2019-05-22T03:08:06.995Z,20.80
2019-05-22T03:10:36.609Z,20.80
2019-05-22T03:13:15.354Z,21.00
2019-05-22T03:15:44.822Z,20.40
2019-05-22T03:18:14.947Z,22.37
2019-05-22T03:20:50.652Z,20.83
2019-05-22T03:23:36.263Z,23.63
2019-05-22T03:26:14.192Z,24.90
2019-05-22T03:28:43.735Z,23.03
2019-05-22T03:31:20.037Z,23.40
2019-05-22T03:33:50.681Z,24.33
2019-05-22T03:36:27.881Z,24.97
2019-05-22T03:39:05.767Z,25.13
2019-05-22T03:41:55.731Z,24.53
2019-05-22T03:44:28.007Z,23.90
2019-05-22T03:47:03.865Z,24.93
2019-05-22T03:49:33.623Z,24.83
2019-05-22T03:52:02.869Z,23.93
2019-05-22T03:54:39.618Z,26.17
2019-05-22T03:57:10.310Z,26.30
2019-05-22T03:59:46.112Z,24.57
2019-05-22T04:02:15.750Z,23.87
2019-05-22T04:04:45.336Z,26.00
2019-05-22T04:07:25.236Z,26.37
2019-05-22T04:09:55.977Z,23.67
2019-05-22T04:12:32.566Z,26.03
2019-05-22T04:15:02.526Z,24.27
2019-05-22T04:17:40.729Z,24.33
2019-05-22T04:20:12.075Z,24.17
2019-05-22T04:22:48.135Z,23.37
2019-05-22T04:25:17.757Z,25.33
2019-05-22T04:27:47.484Z,23.43
2019-05-22T04:30:25.042Z,23.87
2019-05-22T04:32:54.322Z,23.60
2019-05-22T04:35:30.414Z,23.30
2019-05-22T04:38:00.886Z,24.10
2019-05-22T04:41:04.255Z,23.60
2019-05-22T04:43:39.970Z,25.23
2019-05-22T04:46:18.637Z,25.53
2019-05-22T04:48:48.190Z,25.90
2019-05-22T04:51:36.884Z,24.70
2019-05-22T04:54:06.187Z,25.10
2019-05-22T04:56:42.763Z,27.30
2019-05-22T04:59:13.301Z,27.00
2019-05-22T05:01:49.839Z,25.30
2019-05-22T05:04:19.184Z,25.30
2019-05-22T05:06:49.828Z,25.23
2019-05-22T05:09:26.071Z,24.67
2019-05-22T05:11:55.561Z,25.30
2019-05-22T05:14:31.791Z,23.70
2019-05-22T05:17:01.086Z,25.30
2019-05-22T05:19:37.751Z,26.20
2019-05-22T05:22:07.375Z,24.57
2019-05-22T05:24:36.617Z,25.70
2019-05-22T05:27:13.441Z,24.30
2019-05-22T05:29:42.772Z,24.07
2019-05-22T05:32:18.915Z,24.40
2019-05-22T05:34:52.902Z,24.27
2019-05-22T05:37:30.863Z,22.60
2019-05-22T05:40:34.674Z,21.70
2019-05-22T05:43:13.225Z,23.00
2019-05-22T05:45:50.532Z,22.80
2019-05-22T05:48:30.351Z,21.50
2019-05-22T05:51:42.629Z,20.60
2019-05-22T05:54:23.055Z,21.53
2019-05-22T05:56:53.675Z,18.50
2019-05-22T05:59:30.785Z,19.83
2019-05-22T06:02:01.297Z,21.47
2019-05-22T06:04:45.661Z,19.43
2019-05-22T06:07:20.831Z,19.13
2019-05-22T06:10:36.147Z,17.30
2019-05-22T06:13:05.785Z,17.70
2019-05-22T06:15:48.089Z,18.73
2019-05-22T06:18:36.210Z,18.67
2019-05-22T06:21:13.748Z,16.17
2019-05-22T06:24:20.422Z,17.37
2019-05-22T06:27:25.492Z,17.13
2019-05-22T06:30:10.490Z,17.63
2019-05-22T06:33:43.112Z,17.80
2019-05-22T06:36:16.574Z,15.60
2019-05-22T06:39:09.775Z,15.67
2019-05-22T06:41:47.709Z,14.87
2019-05-22T06:44:40.469Z,12.67
2019-05-22T06:47:21.576Z,12.77
2019-05-22T06:49:59.870Z,11.60
2019-05-22T06:52:29.288Z,13.57
2019-05-22T06:55:05.589Z,13.13
2019-05-22T06:57:35.035Z,13.37
2019-05-22T07:00:38.343Z,12.53
2019-05-22T07:03:07.959Z,13.20
2019-05-22T07:05:44.465Z,12.07
2019-05-22T07:08:13.871Z,12.17
2019-05-22T07:10:44.091Z,12.30
2019-05-22T07:13:20.549Z,14.10
2019-05-22T07:15:52.198Z,12.13
2019-05-22T07:18:30.703Z,11.90
2019-05-22T07:20:59.846Z,12.20
2019-05-22T07:23:39.121Z,11.87
2019-05-22T07:26:27.625Z,11.80
2019-05-22T07:29:05.362Z,12.57
2019-05-22T07:34:45.607Z,11.87
2019-05-22T07:37:14.842Z,11.90
2019-05-22T07:39:44.383Z,11.40
2019-05-22T07:42:20.809Z,11.83
2019-05-22T07:44:50.349Z,11.30
2019-05-22T07:47:33.153Z,11.87
2019-05-22T07:50:03.016Z,10.70
2019-05-22T07:52:35.301Z,10.83
2019-05-22T07:55:12.158Z,10.50
2019-05-22T07:57:43.353Z,11.70
2019-05-22T08:00:19.962Z,10.70
2019-05-22T08:02:50.234Z,10.60
2019-05-22T08:05:28.372Z,11.40
2019-05-22T08:07:59.158Z,11.00
2019-05-22T08:10:50.137Z,11.67
2019-05-22T08:13:28.289Z,10.87
2019-05-22T08:16:04.866Z,10.50
2019-05-22T08:18:38.630Z,10.57
2019-05-22T08:21:14.834Z,10.87
2019-05-22T08:23:44.108Z,11.30
2019-05-22T08:26:21.694Z,14.27
2019-05-22T08:28:51.250Z,12.57
2019-05-22T08:31:22.906Z,13.50
2019-05-22T08:33:59.890Z,13.17
2019-05-22T08:36:38.752Z,13.00
2019-05-22T08:39:17.367Z,11.83
2019-05-22T08:41:46.597Z,13.07
2019-05-22T08:44:22.555Z,13.20
2019-05-22T08:46:59.970Z,18.40
2019-05-22T08:49:36.344Z,17.00
2019-05-22T08:52:05.831Z,16.03
2019-05-22T08:54:35.757Z,16.00
2019-05-22T08:57:14.365Z,14.93
2019-05-22T08:59:43.741Z,15.23
2019-05-22T09:02:20.604Z,15.00
2019-05-22T09:04:50.031Z,14.10
2019-05-22T09:07:27.203Z,15.93
2019-05-22T09:09:57.432Z,17.67
2019-05-22T09:12:26.723Z,18.13
2019-05-22T09:15:02.331Z,19.90
2019-05-22T09:17:31.975Z,19.10
2019-05-22T09:20:08.441Z,20.00
2019-05-22T09:22:40.645Z,18.80
2019-05-22T09:25:19.306Z,17.50
2019-05-22T09:27:48.910Z,16.60
2019-05-22T09:30:25.452Z,15.73
2019-05-22T09:32:56.165Z,17.40
2019-05-22T09:35:39.382Z,16.40
2019-05-22T09:38:09.012Z,18.43
2019-05-22T09:40:38.615Z,16.67
2019-05-22T09:43:14.543Z,16.30
2019-05-22T09:45:43.664Z,18.10
2019-05-22T09:48:26.191Z,16.83
2019-05-22T09:50:55.901Z,17.87
2019-05-22T09:53:32.531Z,18.33
2019-05-22T09:56:01.853Z,18.20
2019-05-22T09:58:31.691Z,19.07
2019-05-22T10:01:11.698Z,17.23
2019-05-22T10:06:54.527Z,16.53
2019-05-22T10:09:25.394Z,15.83
2019-05-22T10:12:01.845Z,16.53
2019-05-22T10:14:30.875Z,16.93
2019-05-22T10:17:07.979Z,15.20
2019-05-22T10:19:37.667Z,15.80
2019-05-22T10:22:08.411Z,16.00
2019-05-22T10:24:44.242Z,15.03
2019-05-22T10:27:14.309Z,15.47
2019-05-22T10:29:49.798Z,15.13
2019-05-22T10:32:18.983Z,14.03
2019-05-22T10:34:48.110Z,14.23
2019-05-22T10:37:24.640Z,15.07
2019-05-22T10:39:54.838Z,16.20
2019-05-22T10:42:31.337Z,16.10
2019-05-22T10:45:00.735Z,15.50
2019-05-22T10:47:43.938Z,17.00
2019-05-22T10:50:14.119Z,16.13
2019-05-22T10:52:43.340Z,15.77
2019-05-22T10:55:19.924Z,16.63
2019-05-22T10:57:50.215Z,18.23
2019-05-22T11:00:27.162Z,18.07
2019-05-22T11:02:57.287Z,17.53
2019-05-22T11:05:40.764Z,17.33
2019-05-22T11:08:10.013Z,16.40
2019-05-22T11:10:39.269Z,15.87
2019-05-22T11:13:15.621Z,16.57
2019-05-22T11:15:44.789Z,17.70
2019-05-22T11:18:20.771Z,17.43
2019-05-22T11:20:49.958Z,16.27
2019-05-22T11:23:26.139Z,15.57
2019-05-22T11:25:55.414Z,17.90
2019-05-22T11:28:25.223Z,16.37
2019-05-22T11:31:02.569Z,17.37
2019-05-22T11:33:34.339Z,15.40
2019-05-22T11:36:11.453Z,16.00
2019-05-22T11:38:40.543Z,16.67
2019-05-22T11:41:16.960Z,16.80
2019-05-22T11:43:46.676Z,16.57
2019-05-22T11:46:16.857Z,16.27
2019-05-22T11:48:59.748Z,17.10
2019-05-22T11:51:29.140Z,17.40
2019-05-22T11:54:09.222Z,17.30
2019-05-22T11:56:35.459Z,17.07
2019-05-22T11:59:05.737Z,17.53
2019-05-22T12:01:41.532Z,15.83
2019-05-22T12:04:13.093Z,20.20
2019-05-22T12:06:49.007Z,16.93
2019-05-22T12:09:18.776Z,18.73
2019-05-22T12:11:54.572Z,17.47
2019-05-22T12:14:24.073Z,18.40
2019-05-22T12:16:59.555Z,17.90
2019-05-22T12:19:29.284Z,17.20
2019-05-22T12:21:58.708Z,16.00
2019-05-22T12:24:37.384Z,16.30
2019-05-22T12:27:06.101Z,17.07
2019-05-22T12:29:41.905Z,17.03
2019-05-22T12:32:11.760Z,18.27
2019-05-22T12:34:49.575Z,18.63
2019-05-22T12:37:18.930Z,18.03
2019-05-22T12:39:48.436Z,18.60
2019-05-22T12:42:24.491Z,17.80
2019-05-22T12:45:00.927Z,18.00
2019-05-22T12:47:37.829Z,17.80
2019-05-22T12:50:07.869Z,18.10
2019-05-22T12:52:45.246Z,18.57
2019-05-22T12:55:14.766Z,16.07
2019-05-22T12:57:50.540Z,17.57
2019-05-22T13:00:22.430Z,16.23
2019-05-22T13:02:59.380Z,17.03
2019-05-22T13:05:29.925Z,17.90
2019-05-22T13:08:13.599Z,17.10
2019-05-22T13:10:50.347Z,17.73
2019-05-22T13:13:27.025Z,20.00
2019-05-22T13:15:58.041Z,19.20
2019-05-22T13:18:28.948Z,16.67
2019-05-22T13:21:05.422Z,17.47
2019-05-22T13:23:41.682Z,18.13
2019-05-22T13:26:17.644Z,17.83
2019-05-22T13:28:48.039Z,17.20
2019-05-22T13:31:25.024Z,16.47
2019-05-22T13:33:54.879Z,16.50
2019-05-22T13:36:24.429Z,18.00
2019-05-22T13:39:06.276Z,17.33
2019-05-22T13:41:35.519Z,16.97
2019-05-22T13:44:11.983Z,17.90
2019-05-22T13:46:41.806Z,14.80
2019-05-22T13:49:17.878Z,15.17
2019-05-22T13:51:47.091Z,16.10
2019-05-22T13:54:23.920Z,17.60
2019-05-22T13:56:53.138Z,17.17
2019-05-22T13:59:22.842Z,17.43
2019-05-22T14:01:59.031Z,16.67
2019-05-22T14:04:28.424Z,17.23
2019-05-22T14:07:04.660Z,13.97
2019-05-22T14:09:41.988Z,16.00
2019-05-22T14:12:18.135Z,15.43
2019-05-22T14:14:47.286Z,15.00
2019-05-22T14:17:25.280Z,14.70
2019-05-22T14:19:54.446Z,14.87
2019-05-22T14:22:30.265Z,9.43
2019-05-22T14:24:59.525Z,9.90
2019-05-22T14:27:28.970Z,10.03
2019-05-22T14:30:05.047Z,11.73
2019-05-22T14:32:34.393Z,12.80
2019-05-22T14:35:10.733Z,12.83
2019-05-22T14:37:41.478Z,14.30
2019-05-22T14:40:26.838Z,17.07
2019-05-22T14:43:03.109Z,15.40
2019-05-22T14:45:32.862Z,14.10
2019-05-22T14:48:02.424Z,15.97
2019-05-22T14:50:38.872Z,13.90
2019-05-22T14:53:08.509Z,14.00
2019-05-22T14:55:47.308Z,12.67
2019-05-22T14:58:17.966Z,11.67
2019-05-22T15:00:54.384Z,10.67
2019-05-22T15:03:23.950Z,11.27
2019-05-22T15:05:54.203Z,11.33
2019-05-22T15:08:30.344Z,14.10
2019-05-22T15:11:06.511Z,11.57
2019-05-22T15:13:42.673Z,11.50
2019-05-22T15:16:12.764Z,10.27
2019-05-22T15:18:49.068Z,12.20
2019-05-22T15:21:19.555Z,11.20
2019-05-22T15:23:51.002Z,11.40
2019-05-22T15:26:26.654Z,10.63
2019-05-22T15:28:56.378Z,9.53
2019-05-22T15:31:32.698Z,10.80
2019-05-22T15:34:04.224Z,11.50
2019-05-22T15:36:41.271Z,10.50
2019-05-22T15:39:12.222Z,9.20
2019-05-22T15:41:55.989Z,10.17
2019-05-22T15:44:26.849Z,10.00
2019-05-22T15:46:56.363Z,11.53
2019-05-22T15:49:33.419Z,10.20
2019-05-22T15:52:07.247Z,9.30
2019-05-22T15:54:45.734Z,10.27
2019-05-22T15:57:17.181Z,11.50
2019-05-22T15:59:54.256Z,11.50
2019-05-22T16:02:25.559Z,11.37
2019-05-22T16:05:04.203Z,12.60
2019-05-22T16:07:33.688Z,10.73
2019-05-22T16:10:18.593Z,9.60
2019-05-22T16:12:49.102Z,11.10
2019-05-22T16:15:19.467Z,9.60
2019-05-22T16:18:10.306Z,11.27
2019-05-22T16:20:27.179Z,10.40
2019-05-22T16:23:04.641Z,10.73
2019-05-22T16:25:33.832Z,10.30
2019-05-22T16:28:10.917Z,10.83
2019-05-22T16:30:41.262Z,10.60
2019-05-22T16:33:18.381Z,9.00
2019-05-22T16:35:47.780Z,10.87
2019-05-22T16:38:26.447Z,9.87
2019-05-22T16:41:02.397Z,9.10
2019-05-22T16:43:48.834Z,8.07
2019-05-22T16:46:09.834Z,9.80
2019-05-22T16:48:39.708Z,10.40
2019-05-22T16:51:17.002Z,11.87
2019-05-22T16:53:51.544Z,10.13
2019-05-22T16:56:28.911Z,10.13
2019-05-22T16:58:58.953Z,9.83
2019-05-22T17:01:56.172Z,10.27
2019-05-22T17:04:07.363Z,10.60
2019-05-22T17:06:37.264Z,10.27
2019-05-22T17:09:18.035Z,10.10
2019-05-22T17:12:04.661Z,10.10
2019-05-22T17:14:34.025Z,8.90
2019-05-22T17:17:03.903Z,8.50
2019-05-22T17:19:40.069Z,11.30
2019-05-22T17:22:09.428Z,11.70
2019-05-22T17:24:46.273Z,11.40
2019-05-22T17:27:17.029Z,13.23
2019-05-22T17:29:53.118Z,9.30
2019-05-22T17:32:25.162Z,13.57
2019-05-22T17:34:54.419Z,12.63
2019-05-22T17:37:31.461Z,12.00
2019-05-22T17:40:00.882Z,13.43
2019-05-22T17:42:44.480Z,16.07
2019-05-22T17:45:14.947Z,13.00
2019-05-22T17:47:52.464Z,12.40
2019-05-22T17:50:27.157Z,11.70
2019-05-22T17:53:01.791Z,11.70
2019-05-22T17:55:34.208Z,13.23
2019-05-22T17:58:04.506Z,11.13
2019-05-22T18:00:43.738Z,11.67
2019-05-22T18:03:14.599Z,12.50
2019-05-22T18:05:53.043Z,13.20
2019-05-22T18:08:23.212Z,13.73
2019-05-22T18:11:06.320Z,16.70
2019-05-22T18:13:40.971Z,14.60
2019-05-22T18:16:17.914Z,15.70
2019-05-22T18:18:47.218Z,13.93
2019-05-22T18:21:19.146Z,13.43
2019-05-22T18:23:54.666Z,11.70
2019-05-22T18:26:26.863Z,13.70
2019-05-22T18:29:03.465Z,15.57
2019-05-22T18:31:51.853Z,13.60
2019-05-22T18:34:28.224Z,16.33
2019-05-22T18:37:00.327Z,11.57
2019-05-22T18:39:30.704Z,15.07
2019-05-22T18:42:06.850Z,13.33
2019-05-22T18:44:43.102Z,14.40
2019-05-22T18:47:19.395Z,14.10
2019-05-22T18:49:48.711Z,13.10
2019-05-22T18:52:18.173Z,12.67
2019-05-22T18:54:53.939Z,11.43
2019-05-22T18:57:23.439Z,14.10
2019-05-22T19:00:04.056Z,12.83
2019-05-22T19:02:30.882Z,22.57
2019-05-22T19:05:00.273Z,15.53
2019-05-22T19:07:35.657Z,21.17
2019-05-22T19:10:12.475Z,23.37
2019-05-22T19:12:54.657Z,19.60
2019-05-22T19:15:25.719Z,13.57
2019-05-22T19:17:55.496Z,16.40
2019-05-22T19:20:31.656Z,17.00
2019-05-22T19:23:01.929Z,14.40
2019-05-22T19:25:37.642Z,14.60
2019-05-22T19:28:06.815Z,15.60
2019-05-22T19:30:36.133Z,17.77
2019-05-22T19:33:14.837Z,16.37
2019-05-22T19:35:44.248Z,14.50
2019-05-22T19:38:22.875Z,15.70
2019-05-22T19:40:51.924Z,14.60
2019-05-22T19:43:36.764Z,14.70
2019-05-22T19:46:06.806Z,13.20
2019-05-22T19:48:36.421Z,12.47
2019-05-22T19:51:14.090Z,11.73
2019-05-22T19:53:43.460Z,11.97
2019-05-22T19:56:21.061Z,12.60
2019-05-22T19:58:51.026Z,12.60
2019-05-22T20:01:27.444Z,11.83
2019-05-22T20:03:56.819Z,12.83
2019-05-22T20:06:27.896Z,11.60
2019-05-22T20:09:05.303Z,12.30
2019-05-22T20:11:41.788Z,12.10
2019-05-22T20:14:18.414Z,12.80
2019-05-22T20:16:50.719Z,13.80
2019-05-22T20:19:19.980Z,12.93
2019-05-22T20:21:59.733Z,13.13
2019-05-22T20:24:36.090Z,11.20
2019-05-22T20:27:13.476Z,13.10
2019-05-22T20:29:43.194Z,16.23
2019-05-22T20:32:15.225Z,14.30
2019-05-22T20:34:52.426Z,16.87
2019-05-22T20:37:24.420Z,15.50
2019-05-22T20:39:54.410Z,14.13
2019-05-22T20:42:31.067Z,16.30
2019-05-22T20:45:08.129Z,14.93
2019-05-22T20:47:46.296Z,14.60
2019-05-22T20:50:16.880Z,14.03
2019-05-22T20:55:43.941Z,13.77
2019-05-22T20:58:14.243Z,13.43
2019-05-22T21:00:45.156Z,13.17
2019-05-22T21:03:22.409Z,13.17
2019-05-22T21:05:54.146Z,15.63
2019-05-22T21:08:33.545Z,15.57
2019-05-22T21:11:10.781Z,15.53
2019-05-22T21:13:53.312Z,15.10
2019-05-22T21:16:23.061Z,15.20
2019-05-22T21:18:59.451Z,13.00
2019-05-22T21:21:29.266Z,14.27
2019-05-22T21:24:11.288Z,14.60
2019-05-22T21:26:37.070Z,14.40
2019-05-22T21:29:08.173Z,12.80
2019-05-22T21:31:47.714Z,13.90
2019-05-22T21:34:16.607Z,14.13
2019-05-22T21:36:52.800Z,15.00
2019-05-22T21:39:23.575Z,14.40
2019-05-22T21:41:52.732Z,14.00
2019-05-22T21:44:28.585Z,13.93
2019-05-22T21:47:05.855Z,14.53
2019-05-22T21:49:41.651Z,14.17
2019-05-22T21:52:11.477Z,15.00
2019-05-22T21:54:41.059Z,14.50
2019-05-22T21:57:18.045Z,14.97
2019-05-22T21:59:48.101Z,14.53
2019-05-22T22:02:31.717Z,14.63
2019-05-22T22:05:00.773Z,15.27
2019-05-22T22:07:36.852Z,14.57
2019-05-22T22:10:06.763Z,14.70
2019-05-22T22:12:50.407Z,16.67
2019-05-22T22:15:27.146Z,15.80
2019-05-22T22:18:04.044Z,15.60
2019-05-22T22:20:34.450Z,15.30
2019-05-22T22:23:04.914Z,16.27
2019-05-22T22:25:41.410Z,16.10
2019-05-22T22:28:12.836Z,15.30
2019-05-22T22:30:54.605Z,16.40
2019-05-22T22:33:28.938Z,17.00
2019-05-22T22:36:05.908Z,16.90
2019-05-22T22:38:36.347Z,17.80
2019-05-22T22:41:19.977Z,16.40
2019-05-22T22:43:52.193Z,17.73
2019-05-22T22:46:46.542Z,17.93
2019-05-22T22:49:18.206Z,16.80
2019-05-22T22:51:48.881Z,19.00
2019-05-22T22:54:25.130Z,17.63
2019-05-22T22:56:55.530Z,17.80
2019-05-22T22:59:32.961Z,17.30
2019-05-22T23:02:03.872Z,17.60
2019-05-22T23:04:34.206Z,18.13
2019-05-22T23:07:14.314Z,18.10
2019-05-22T23:09:44.189Z,17.13
2019-05-22T23:12:20.854Z,17.80
2019-05-22T23:15:01.749Z,17.40
2019-05-22T23:17:38.058Z,18.00
2019-05-22T23:20:07.476Z,19.07
2019-05-22T23:22:35.831Z,18.27
2019-05-22T23:25:12.877Z,18.70
2019-05-22T23:27:42.788Z,18.50
2019-05-22T23:30:11.919Z,17.93
2019-05-22T23:32:49.732Z,18.23
2019-05-22T23:35:18.934Z,17.20
2019-05-22T23:37:48.578Z,20.07
2019-05-22T23:40:29.738Z,18.77
2019-05-22T23:43:00.503Z,18.40
2019-05-22T23:45:43.431Z,20.23
2019-05-22T23:48:14.651Z,18.87
2019-05-22T23:50:44.502Z,19.90
2019-05-22T23:53:22.780Z,19.70
2019-05-22T23:55:51.987Z,18.23
2019-05-22T23:58:24.057Z,17.43
